createdAt,value
2023-01-13T00:00:27.153Z,13.70
2023-01-13T00:03:12.022Z,19.10
2023-01-13T00:05:44.020Z,15.80
2023-01-13T00:08:15.878Z,18.30
2023-01-13T00:10:50.297Z,17.00
2023-01-13T00:13:27.071Z,17.00
2023-01-13T00:16:04.063Z,18.80
2023-01-13T00:18:37.690Z,16.70
2023-01-13T00:21:13.764Z,16.20
2023-01-13T00:23:45.931Z,12.60
2023-01-13T00:26:22.199Z,14.70
2023-01-13T00:28:58.210Z,17.50
2023-01-13T00:31:31.924Z,13.80
2023-01-13T00:34:04.999Z,12.70
2023-01-13T00:36:38.053Z,14.50
2023-01-13T00:39:12.661Z,11.30
2023-01-13T00:44:32.485Z,13.50
2023-01-13T00:47:04.697Z,11.90
2023-01-13T00:49:36.252Z,11.60
2023-01-13T00:52:11.456Z,10.60
2023-01-13T00:54:46.730Z,12.50
2023-01-13T00:57:19.331Z,12.30
2023-01-13T00:59:51.451Z,12.90
2023-01-13T01:02:24.929Z,10.10
2023-01-13T01:04:57.659Z,14.40
2023-01-13T01:07:29.909Z,14.20
2023-01-13T01:10:02.309Z,13.70
2023-01-13T01:12:34.507Z,10.30
2023-01-13T01:15:09.945Z,15.20
2023-01-13T01:17:42.239Z,12.10
2023-01-13T01:20:16.358Z,10.70
2023-01-13T01:22:48.519Z,10.00
2023-01-13T01:25:21.037Z,11.10
2023-01-13T01:27:55.941Z,12.50
2023-01-13T01:30:28.740Z,12.50
2023-01-13T01:33:00.825Z,12.20
2023-01-13T01:35:37.435Z,12.60
2023-01-13T01:38:09.688Z,11.60
2023-01-13T01:40:41.981Z,12.10
2023-01-13T01:43:42.108Z,12.40
2023-01-13T01:46:18.691Z,9.60
2023-01-13T01:49:07.289Z,11.20
2023-01-13T01:51:43.814Z,9.40
2023-01-13T01:54:24.274Z,13.10
2023-01-13T01:56:58.029Z,12.80
2023-01-13T01:59:33.500Z,13.40
2023-01-13T02:02:05.567Z,12.30
2023-01-13T02:04:40.904Z,11.20
2023-01-13T02:07:12.865Z,10.20
2023-01-13T02:09:44.639Z,7.80
2023-01-13T02:12:32.747Z,13.20
2023-01-13T02:15:08.882Z,10.50
2023-01-13T02:17:57.777Z,11.30
2023-01-13T02:20:54.076Z,9.10
2023-01-13T02:24:12.163Z,12.00
2023-01-13T02:27:07.304Z,10.90
2023-01-13T02:30:26.669Z,11.20
2023-01-13T02:33:12.700Z,9.60
2023-01-13T02:35:52.427Z,12.40
2023-01-13T02:38:30.511Z,10.60
2023-01-13T02:41:20.830Z,8.60
2023-01-13T02:44:11.116Z,10.70
2023-01-13T02:47:00.654Z,9.00
2023-01-13T02:49:37.637Z,8.90
2023-01-13T02:52:15.784Z,7.90
2023-01-13T02:54:52.871Z,8.60
2023-01-13T02:57:27.407Z,7.80
2023-01-13T02:59:59.383Z,9.30
2023-01-13T03:02:32.453Z,9.40
2023-01-13T03:05:04.501Z,8.40
2023-01-13T03:08:02.744Z,10.50
2023-01-13T03:10:47.784Z,9.50
2023-01-13T03:14:00.894Z,9.30
2023-01-13T03:16:40.818Z,10.20
2023-01-13T03:19:24.050Z,8.00
2023-01-13T03:22:00.950Z,9.10
2023-01-13T03:24:39.851Z,8.20
2023-01-13T03:27:17.377Z,7.40
2023-01-13T03:29:52.433Z,10.90
2023-01-13T03:32:29.085Z,10.90
2023-01-13T03:35:06.016Z,11.10
2023-01-13T03:37:41.092Z,10.20
2023-01-13T03:40:21.791Z,11.20
2023-01-13T03:43:16.023Z,11.30
2023-01-13T03:45:54.656Z,11.30
2023-01-13T03:48:29.393Z,10.30
2023-01-13T03:53:38.933Z,8.60
2023-01-13T03:56:14.579Z,10.60
2023-01-13T03:58:49.631Z,10.10
2023-01-13T04:01:26.539Z,10.10
2023-01-13T04:04:03.097Z,9.80
2023-01-13T04:06:42.099Z,10.00
2023-01-13T04:09:21.005Z,14.80
2023-01-13T04:11:57.601Z,10.80
2023-01-13T04:14:30.902Z,8.10
2023-01-13T04:17:02.556Z,8.90
2023-01-13T04:19:34.794Z,6.40
2023-01-13T04:22:06.433Z,11.10
2023-01-13T04:24:38.573Z,8.60
2023-01-13T04:27:10.122Z,8.50
2023-01-13T04:29:41.730Z,9.60
2023-01-13T04:32:56.398Z,8.70
2023-01-13T04:36:17.440Z,7.10
2023-01-13T04:38:48.977Z,6.30
2023-01-13T04:41:20.585Z,6.60
2023-01-13T04:43:52.332Z,8.00
2023-01-13T04:46:24.011Z,9.20
2023-01-13T04:48:55.447Z,8.90
2023-01-13T04:51:27.676Z,7.10
2023-01-13T04:53:59.227Z,7.80
2023-01-13T04:56:30.682Z,9.00
2023-01-13T04:59:02.169Z,8.60
2023-01-13T05:01:33.944Z,9.50
2023-01-13T05:04:05.482Z,7.50
2023-01-13T05:06:37.395Z,11.50
2023-01-13T05:09:09.100Z,11.30
2023-01-13T05:11:57.703Z,10.20
2023-01-13T05:14:46.412Z,9.80
2023-01-13T05:17:22.883Z,11.60
2023-01-13T05:19:54.538Z,8.90
2023-01-13T05:22:43.306Z,8.50
2023-01-13T05:25:25.552Z,7.20
2023-01-13T05:27:58.512Z,7.70
2023-01-13T05:30:32.590Z,10.00
2023-01-13T05:33:04.109Z,10.10
2023-01-13T05:35:35.560Z,11.90
2023-01-13T05:38:07.407Z,9.90
2023-01-13T05:40:56.379Z,9.80
2023-01-13T05:43:28.866Z,8.10
2023-01-13T05:46:03.339Z,9.20
2023-01-13T05:48:36.859Z,7.80
2023-01-13T05:51:10.959Z,7.90
2023-01-13T05:53:43.164Z,8.50
2023-01-13T05:56:14.675Z,8.20
2023-01-13T05:58:46.498Z,6.70
2023-01-13T06:01:18.341Z,10.50
2023-01-13T06:03:49.729Z,8.30
2023-01-13T06:06:22.236Z,6.80
2023-01-13T06:08:53.560Z,8.60
2023-01-13T06:11:25.244Z,10.20
2023-01-13T06:13:56.901Z,9.90
2023-01-13T06:16:28.947Z,11.20
2023-01-13T06:19:00.676Z,11.80
2023-01-13T06:21:33.315Z,10.20
2023-01-13T06:24:05.488Z,13.70
2023-01-13T06:26:40.820Z,11.00
2023-01-13T06:29:18.184Z,12.30
2023-01-13T06:31:49.791Z,12.40
2023-01-13T06:34:21.727Z,9.80
2023-01-13T06:36:56.068Z,8.10
2023-01-13T06:39:31.457Z,7.10
2023-01-13T06:42:22.086Z,8.60
2023-01-13T06:44:53.756Z,7.20
2023-01-13T06:47:25.597Z,6.50
2023-01-13T06:49:57.262Z,6.70
2023-01-13T06:52:30.906Z,7.60
2023-01-13T06:55:05.053Z,6.10
2023-01-13T06:57:36.792Z,8.30
2023-01-13T07:00:12.973Z,8.20
2023-01-13T07:02:46.468Z,6.70
2023-01-13T07:05:19.863Z,8.20
2023-01-13T07:07:53.046Z,10.40
2023-01-13T07:10:24.672Z,9.40
2023-01-13T07:13:13.600Z,7.30
2023-01-13T07:15:54.035Z,7.30
2023-01-13T07:18:27.598Z,8.50
2023-01-13T07:21:02.244Z,7.80
2023-01-13T07:23:36.151Z,8.50
2023-01-13T07:26:09.737Z,8.30
2023-01-13T07:28:42.700Z,9.20
2023-01-13T07:31:19.071Z,9.80
2023-01-13T07:33:50.944Z,7.80
2023-01-13T07:36:22.465Z,9.80
2023-01-13T07:38:54.896Z,7.90
2023-01-13T07:41:44.108Z,9.90
2023-01-13T07:44:15.525Z,7.40
2023-01-13T07:46:47.118Z,10.30
2023-01-13T07:49:20.326Z,7.00
2023-01-13T07:51:53.310Z,9.20
2023-01-13T07:54:35.093Z,6.90
2023-01-13T07:57:11.026Z,7.70
2023-01-13T07:59:42.396Z,8.10
2023-01-13T08:02:16.196Z,11.10
2023-01-13T08:04:47.983Z,9.00
2023-01-13T08:07:19.620Z,11.00
2023-01-13T08:09:51.805Z,9.10
2023-01-13T08:12:53.038Z,10.20
2023-01-13T08:15:30.001Z,11.20
2023-01-13T08:18:01.525Z,11.60
2023-01-13T08:20:33.027Z,13.40
2023-01-13T08:23:07.021Z,13.40
2023-01-13T08:25:38.877Z,9.50
2023-01-13T08:28:10.616Z,10.40
2023-01-13T08:30:42.384Z,9.60
2023-01-13T08:33:14.597Z,10.80
2023-01-13T08:35:46.136Z,7.90
2023-01-13T08:38:17.522Z,10.50
2023-01-13T08:40:49.920Z,10.60
2023-01-13T08:43:22.136Z,10.90
2023-01-13T08:46:02.011Z,10.40
2023-01-13T08:48:33.814Z,10.70
2023-01-13T08:51:10.734Z,9.90
2023-01-13T08:53:42.148Z,12.90
2023-01-13T08:56:15.188Z,7.60
2023-01-13T08:58:47.680Z,10.60
2023-01-13T09:01:23.875Z,7.70
2023-01-13T09:03:56.393Z,11.50
2023-01-13T09:06:27.963Z,10.20
2023-01-13T09:08:59.517Z,10.00
2023-01-13T09:11:51.622Z,9.20
2023-01-13T09:14:25.241Z,10.30
2023-01-13T09:16:56.888Z,9.10
2023-01-13T09:19:29.181Z,10.40
2023-01-13T09:22:00.802Z,11.80
2023-01-13T09:24:33.228Z,13.30
2023-01-13T09:27:04.676Z,10.10
2023-01-13T09:29:36.487Z,11.20
2023-01-13T09:32:08.853Z,11.70
2023-01-13T09:34:57.817Z,11.00
2023-01-13T09:37:30.415Z,11.90
2023-01-13T09:40:02.023Z,8.30
2023-01-13T09:42:59.293Z,10.50
2023-01-13T09:45:34.725Z,9.00
2023-01-13T09:48:14.685Z,9.80
2023-01-13T09:50:58.698Z,8.20
2023-01-13T09:53:33.839Z,9.10
2023-01-13T09:56:05.824Z,10.30
2023-01-13T09:58:37.312Z,7.70
2023-01-13T10:01:24.317Z,8.90
2023-01-13T10:03:56.244Z,14.30
2023-01-13T10:06:36.396Z,10.00
2023-01-13T10:09:07.852Z,7.40
2023-01-13T10:12:01.349Z,11.80
2023-01-13T10:14:40.335Z,8.70
2023-01-13T10:17:22.630Z,12.40
2023-01-13T10:19:59.142Z,9.00
2023-01-13T10:22:48.823Z,8.20
2023-01-13T10:25:36.869Z,10.60
2023-01-13T10:28:12.949Z,10.70
2023-01-13T10:30:45.900Z,10.50
2023-01-13T10:33:20.881Z,10.20
2023-01-13T10:36:03.926Z,10.80
2023-01-13T10:38:41.493Z,10.10
2023-01-13T10:41:24.755Z,9.20
2023-01-13T10:44:09.336Z,8.30
2023-01-13T10:46:55.544Z,10.00
2023-01-13T10:49:37.821Z,9.80
2023-01-13T10:52:31.583Z,7.50
2023-01-13T10:55:02.895Z,8.80
2023-01-13T10:57:39.009Z,9.10
2023-01-13T11:00:29.992Z,8.40
2023-01-13T11:03:18.998Z,8.30
2023-01-13T11:05:55.533Z,12.70
2023-01-13T11:08:29.231Z,10.90
2023-01-13T11:11:01.773Z,10.90
2023-01-13T11:13:37.350Z,11.40
2023-01-13T11:16:14.089Z,9.90
2023-01-13T11:19:02.795Z,7.80
2023-01-13T11:21:40.970Z,9.80
2023-01-13T11:24:22.338Z,9.00
2023-01-13T11:27:00.721Z,10.50
2023-01-13T11:29:39.894Z,12.30
2023-01-13T11:32:13.830Z,10.90
2023-01-13T11:34:52.666Z,8.70
2023-01-13T11:37:28.002Z,9.30
2023-01-13T11:40:06.578Z,9.90
2023-01-13T11:42:43.331Z,11.10
2023-01-13T11:45:23.604Z,11.90
2023-01-13T11:47:59.711Z,10.10
2023-01-13T11:50:38.647Z,9.10
2023-01-13T11:53:21.856Z,10.20
2023-01-13T11:56:06.936Z,10.30
2023-01-13T12:01:45.838Z,11.40
2023-01-13T12:04:29.069Z,10.20
2023-01-13T12:07:21.418Z,10.60
2023-01-13T12:10:08.943Z,11.20
2023-01-13T12:12:52.771Z,10.70
2023-01-13T12:15:58.123Z,15.50
2023-01-13T12:18:42.256Z,11.40
2023-01-13T12:21:24.989Z,12.90
2023-01-13T12:24:07.705Z,9.00
2023-01-13T12:26:44.289Z,8.90
2023-01-13T12:29:19.783Z,8.40
2023-01-13T12:31:52.874Z,9.90
2023-01-13T12:34:43.590Z,10.60
2023-01-13T12:37:24.084Z,10.40
2023-01-13T12:40:05.744Z,8.50
2023-01-13T12:43:05.813Z,8.40
2023-01-13T12:45:37.589Z,9.20
2023-01-13T12:48:35.518Z,9.20
2023-01-13T12:51:22.608Z,10.60
2023-01-13T12:53:55.537Z,8.00
2023-01-13T12:56:36.728Z,9.20
2023-01-13T12:59:39.508Z,9.80
2023-01-13T13:02:38.745Z,6.70
2023-01-13T13:05:46.283Z,7.60
2023-01-13T13:08:23.746Z,6.70
2023-01-13T13:11:33.655Z,7.80
2023-01-13T13:14:06.911Z,9.30
2023-01-13T13:16:56.055Z,9.40
2023-01-13T13:19:45.414Z,8.80
2023-01-13T13:22:45.199Z,10.40
2023-01-13T13:25:36.109Z,9.10
2023-01-13T13:28:24.266Z,11.70
2023-01-13T13:31:12.616Z,8.80
2023-01-13T13:33:56.370Z,9.30
2023-01-13T13:37:10.205Z,10.80
2023-01-13T13:40:03.526Z,10.40
2023-01-13T13:43:01.359Z,14.60
2023-01-13T13:45:50.573Z,12.60
2023-01-13T13:48:28.830Z,9.60
2023-01-13T13:51:04.035Z,9.40
2023-01-13T13:53:38.815Z,8.90
2023-01-13T13:58:50.820Z,8.80
2023-01-13T14:01:28.169Z,10.90
2023-01-13T14:04:15.672Z,9.70
2023-01-13T14:07:04.704Z,9.00
2023-01-13T14:09:46.668Z,10.00
2023-01-13T14:12:23.408Z,13.80
2023-01-13T14:14:57.832Z,9.70
2023-01-13T14:17:31.426Z,8.70
2023-01-13T14:20:06.122Z,9.90
2023-01-13T14:25:37.373Z,8.50
2023-01-13T14:28:22.508Z,10.60
2023-01-13T14:33:34.192Z,11.10
2023-01-13T14:36:16.639Z,11.00
2023-01-13T14:38:50.207Z,12.20
2023-01-13T14:41:29.550Z,12.80
2023-01-13T14:44:03.088Z,12.20
2023-01-13T14:46:50.568Z,11.60
2023-01-13T14:49:30.277Z,12.80
2023-01-13T14:52:12.977Z,15.10
2023-01-13T14:54:51.168Z,12.50
2023-01-13T14:57:32.642Z,12.20
2023-01-13T15:00:19.440Z,17.50
2023-01-13T15:03:01.616Z,14.20
2023-01-13T15:05:47.823Z,15.60
2023-01-13T15:08:47.657Z,17.10
2023-01-13T15:11:28.151Z,16.60
2023-01-13T15:14:02.962Z,14.50
2023-01-13T15:19:06.765Z,14.40
2023-01-13T15:21:39.046Z,14.80
2023-01-13T15:24:10.746Z,14.90
2023-01-13T15:26:42.517Z,11.90
2023-01-13T15:29:17.075Z,12.60
2023-01-13T15:31:48.575Z,13.40
2023-01-13T15:34:19.876Z,14.30
2023-01-13T15:36:51.933Z,13.50
2023-01-13T15:39:23.488Z,15.70
2023-01-13T15:42:12.327Z,16.50
2023-01-13T15:45:01.829Z,15.70
2023-01-13T15:47:33.629Z,18.50
2023-01-13T15:50:06.182Z,17.20
2023-01-13T15:52:38.502Z,14.00
2023-01-13T15:55:11.530Z,15.60
2023-01-13T15:57:47.981Z,15.20
2023-01-13T16:00:23.939Z,15.10
2023-01-13T16:02:55.648Z,11.30
2023-01-13T16:05:27.406Z,14.10
2023-01-13T16:07:58.895Z,10.60
2023-01-13T16:10:31.457Z,11.80
2023-01-13T16:13:03.765Z,11.20
2023-01-13T16:15:36.228Z,9.80
2023-01-13T16:18:08.983Z,11.70
2023-01-13T16:20:40.797Z,13.60
2023-01-13T16:23:12.834Z,12.70
2023-01-13T16:25:46.964Z,10.00
2023-01-13T16:28:25.030Z,15.50
2023-01-13T16:30:57.561Z,14.40
2023-01-13T16:33:29.341Z,15.60
2023-01-13T16:36:10.865Z,15.30
2023-01-13T16:38:44.357Z,14.10
2023-01-13T16:41:16.280Z,13.40
2023-01-13T16:43:48.327Z,11.40
2023-01-13T16:46:24.803Z,12.10
2023-01-13T16:48:58.535Z,10.70
2023-01-13T16:51:30.152Z,11.50
2023-01-13T16:54:02.856Z,11.10
2023-01-13T16:56:36.027Z,14.50
2023-01-13T16:59:10.669Z,13.60
2023-01-13T17:01:46.460Z,15.30
2023-01-13T17:04:20.958Z,16.80
2023-01-13T17:07:00.594Z,17.50
2023-01-13T17:09:33.489Z,20.30
2023-01-13T17:12:05.926Z,19.80
2023-01-13T17:14:38.248Z,16.80
2023-01-13T17:17:15.814Z,17.00
2023-01-13T17:19:47.599Z,17.50
2023-01-13T17:22:20.225Z,16.40
2023-01-13T17:24:52.941Z,18.60
2023-01-13T17:27:27.028Z,13.30
2023-01-13T17:29:59.005Z,15.60
2023-01-13T17:32:30.861Z,14.80
2023-01-13T17:35:03.823Z,11.80
2023-01-13T17:37:36.295Z,11.50
2023-01-13T17:40:11.703Z,13.80
2023-01-13T17:43:01.041Z,13.60
2023-01-13T17:45:34.055Z,13.80
2023-01-13T17:48:21.051Z,11.70
2023-01-13T17:50:53.684Z,12.90
2023-01-13T17:53:47.364Z,14.30
2023-01-13T17:56:46.666Z,12.60
2023-01-13T17:59:21.431Z,15.20
2023-01-13T18:04:29.247Z,11.50
2023-01-13T18:07:01.419Z,14.60
2023-01-13T18:09:36.454Z,15.70
2023-01-13T18:12:11.929Z,14.10
2023-01-13T18:14:45.504Z,12.70
2023-01-13T18:17:19.222Z,14.20
2023-01-13T18:20:09.154Z,13.20
2023-01-13T18:22:59.961Z,15.40
2023-01-13T18:25:49.014Z,11.70
2023-01-13T18:28:21.121Z,14.60
2023-01-13T18:30:54.372Z,13.90
2023-01-13T18:33:30.999Z,12.20
2023-01-13T18:36:11.268Z,14.40
2023-01-13T18:38:45.461Z,13.00
2023-01-13T18:41:31.568Z,10.80
2023-01-13T18:44:04.401Z,11.40
2023-01-13T18:46:37.050Z,11.60
2023-01-13T18:49:10.455Z,10.20
2023-01-13T18:51:42.160Z,12.80
2023-01-13T18:54:14.697Z,11.70
2023-01-13T18:56:54.007Z,12.90
2023-01-13T18:59:32.096Z,11.70
2023-01-13T19:02:19.055Z,11.90
2023-01-13T19:04:51.134Z,12.60
2023-01-13T19:07:29.572Z,14.60
2023-01-13T19:10:02.280Z,14.70
2023-01-13T19:12:34.487Z,15.50
2023-01-13T19:15:15.349Z,15.60
2023-01-13T19:17:49.761Z,13.20
2023-01-13T19:20:35.968Z,16.40
2023-01-13T19:23:41.523Z,15.90
2023-01-13T19:26:14.809Z,18.20
2023-01-13T19:32:12.762Z,16.40
2023-01-13T19:32:36.284Z,14.70
2023-01-13T19:34:52.344Z,13.30
2023-01-13T19:37:46.083Z,12.60
2023-01-13T19:40:30.796Z,13.90
2023-01-13T19:43:19.779Z,13.10
2023-01-13T19:45:59.842Z,13.80
2023-01-13T19:48:35.550Z,12.90
2023-01-13T19:51:27.915Z,13.40
2023-01-13T19:54:06.047Z,12.50
2023-01-13T19:56:40.771Z,12.10
2023-01-13T20:01:48.889Z,12.90
2023-01-13T20:04:27.748Z,16.20
2023-01-13T20:07:09.524Z,12.40
2023-01-13T20:09:47.042Z,10.80
2023-01-13T20:12:22.704Z,11.40
2023-01-13T20:14:55.693Z,8.90
2023-01-13T20:17:34.437Z,9.00
2023-01-13T20:20:09.327Z,16.60
2023-01-13T20:22:48.872Z,13.20
2023-01-13T20:25:27.483Z,10.40
2023-01-13T20:28:02.704Z,10.00
2023-01-13T20:30:35.942Z,10.90
2023-01-13T20:33:08.275Z,10.00
2023-01-13T20:35:42.265Z,12.00
2023-01-13T20:38:20.951Z,10.00
2023-01-13T20:41:37.920Z,9.00
2023-01-13T20:44:16.486Z,9.70
2023-01-13T20:47:16.650Z,11.10
2023-01-13T20:49:58.801Z,15.60
2023-01-13T20:52:41.272Z,9.30
2023-01-13T20:55:19.957Z,9.40
2023-01-13T20:58:02.731Z,19.90
2023-01-13T21:00:53.649Z,10.90
2023-01-13T21:03:50.655Z,13.60
2023-01-13T21:06:35.383Z,9.70
2023-01-13T21:09:27.981Z,12.50
2023-01-13T21:12:21.258Z,10.20
2023-01-13T21:15:10.818Z,9.40
2023-01-13T21:18:02.721Z,10.10
2023-01-13T21:20:39.237Z,11.60
2023-01-13T21:23:21.090Z,13.20
2023-01-13T21:25:52.799Z,8.40
2023-01-13T21:28:24.355Z,10.20
2023-01-13T21:30:56.199Z,12.90
2023-01-13T21:33:27.982Z,10.20
2023-01-13T21:35:59.670Z,13.30
2023-01-13T21:38:31.205Z,14.60
2023-01-13T21:41:05.912Z,14.40
2023-01-13T21:46:42.816Z,12.60
2023-01-13T21:49:14.421Z,15.60
2023-01-13T21:51:45.881Z,12.90
2023-01-13T21:54:17.335Z,14.20
2023-01-13T21:56:50.732Z,14.40
2023-01-13T21:59:24.166Z,15.50
2023-01-13T22:02:24.512Z,16.00
2023-01-13T22:04:56.831Z,14.40
2023-01-13T22:07:29.105Z,15.30
2023-01-13T22:10:00.681Z,15.40
2023-01-13T22:12:33.100Z,24.60
2023-01-13T22:15:04.973Z,17.30
2023-01-13T22:17:36.592Z,16.40
2023-01-13T22:20:10.398Z,13.30
2023-01-13T22:22:42.718Z,13.70
2023-01-13T22:25:17.341Z,15.40
2023-01-13T22:27:49.554Z,19.80
2023-01-13T22:30:22.571Z,18.70
2023-01-13T22:32:54.115Z,13.90
2023-01-13T22:35:25.850Z,13.10
2023-01-13T22:37:57.353Z,12.90
2023-01-13T22:40:28.852Z,15.40
2023-01-13T22:43:00.382Z,16.40
2023-01-13T22:45:32.918Z,12.70
2023-01-13T22:48:04.487Z,13.00
2023-01-13T22:50:36.256Z,12.20
2023-01-13T22:53:07.862Z,11.20
2023-01-13T22:55:39.395Z,14.00
2023-01-13T22:58:10.873Z,11.20
2023-01-13T23:00:43.242Z,11.90
2023-01-13T23:03:18.866Z,11.60
2023-01-13T23:05:56.942Z,13.20
2023-01-13T23:08:28.399Z,15.20
2023-01-13T23:11:05.930Z,12.70
2023-01-13T23:13:39.621Z,12.00
2023-01-13T23:16:14.925Z,12.10
2023-01-13T23:18:48.340Z,11.80
2023-01-13T23:21:22.469Z,12.70
2023-01-13T23:23:54.088Z,14.10
2023-01-13T23:26:25.558Z,13.90
2023-01-13T23:28:59.094Z,12.60
2023-01-13T23:31:30.705Z,15.00
2023-01-13T23:34:02.493Z,14.50
2023-01-13T23:36:37.189Z,12.40
2023-01-13T23:39:09.970Z,14.30
2023-01-13T23:41:42.357Z,15.30
2023-01-13T23:44:13.788Z,15.40
2023-01-13T23:46:45.501Z,12.30
2023-01-13T23:49:17.149Z,18.00
2023-01-13T23:51:50.901Z,13.90
2023-01-13T23:54:22.341Z,13.50
2023-01-13T23:56:54.047Z,17.70
2023-01-13T23:59:25.663Z,14.20
